createdAt,value
2019-05-10T00:00:06.068Z,82.29
2019-05-10T00:02:51.469Z,82.50
2019-05-10T00:05:36.249Z,82.36
2019-05-10T00:08:21.244Z,82.52
2019-05-10T00:10:51.383Z,82.79
2019-05-10T00:13:22.832Z,83.06
2019-05-10T00:15:50.993Z,83.00
2019-05-10T00:18:17.692Z,82.95
2019-05-10T00:20:44.403Z,83.11
2019-05-10T00:23:11.110Z,83.18
2019-05-10T00:25:37.800Z,83.19
2019-05-10T00:28:04.816Z,83.12
2019-05-10T00:30:33.032Z,83.01
2019-05-10T00:33:00.090Z,83.28
2019-05-10T00:35:26.799Z,82.83
2019-05-10T00:37:53.496Z,82.72
2019-05-10T00:40:20.243Z,82.80
2019-05-10T00:42:46.948Z,83.02
2019-05-10T00:45:13.633Z,82.82
2019-05-10T00:47:40.343Z,82.76
2019-05-10T00:50:07.022Z,83.20
2019-05-10T00:52:33.759Z,83.73
2019-05-10T00:55:00.472Z,83.78
2019-05-10T00:57:27.170Z,83.91
2019-05-10T00:59:53.889Z,84.30
2019-05-10T01:02:22.594Z,83.89
2019-05-10T01:04:49.308Z,83.72
2019-05-10T01:07:16.022Z,83.81
2019-05-10T01:09:42.775Z,84.12
2019-05-10T01:12:09.465Z,84.24
2019-05-10T01:14:36.182Z,83.86
2019-05-10T01:17:02.891Z,84.08
2019-05-10T01:19:29.576Z,84.17
2019-05-10T01:21:56.284Z,84.06
2019-05-10T01:24:23.406Z,84.19
2019-05-10T01:26:50.129Z,84.04
2019-05-10T01:29:17.174Z,83.83
2019-05-10T01:31:43.864Z,83.73
2019-05-10T01:34:10.571Z,83.91
2019-05-10T01:36:38.108Z,84.49
2019-05-10T01:39:05.512Z,84.83
2019-05-10T01:41:32.251Z,85.00
2019-05-10T01:43:58.941Z,85.33
2019-05-10T01:46:25.674Z,85.20
2019-05-10T01:48:52.553Z,85.32
2019-05-10T01:51:19.368Z,85.38
2019-05-10T01:53:46.262Z,85.18
2019-05-10T01:56:12.973Z,85.08
2019-05-10T01:58:39.690Z,84.90
2019-05-10T02:01:06.395Z,84.62
2019-05-10T02:03:33.070Z,84.74
2019-05-10T02:05:59.828Z,84.53
2019-05-10T02:08:26.559Z,84.42
2019-05-10T02:10:54.665Z,84.63
2019-05-10T02:13:21.778Z,84.50
2019-05-10T02:15:48.626Z,84.23
2019-05-10T02:18:15.321Z,84.19
2019-05-10T02:20:42.082Z,84.13
2019-05-10T02:23:11.571Z,83.92
2019-05-10T02:25:38.408Z,84.40
2019-05-10T02:28:05.134Z,84.15
2019-05-10T02:30:32.189Z,84.27
2019-05-10T02:32:59.224Z,83.95
2019-05-10T02:35:26.233Z,84.16
2019-05-10T02:37:52.944Z,84.20
2019-05-10T02:40:19.653Z,84.49
2019-05-10T02:42:46.312Z,84.44
2019-05-10T02:45:13.021Z,84.15
2019-05-10T02:47:39.705Z,84.30
2019-05-10T02:50:06.428Z,84.77
2019-05-10T02:52:33.251Z,84.61
2019-05-10T02:55:00.048Z,84.53
2019-05-10T02:57:26.740Z,84.39
2019-05-10T02:59:53.450Z,84.31
2019-05-10T03:02:20.165Z,84.33
2019-05-10T03:04:47.329Z,84.65
2019-05-10T03:07:14.604Z,84.75
2019-05-10T03:09:41.342Z,84.30
2019-05-10T03:12:20.223Z,84.28
2019-05-10T03:14:46.916Z,84.33
2019-05-10T03:17:13.601Z,84.31
2019-05-10T03:19:40.320Z,84.70
2019-05-10T03:22:07.037Z,84.66
2019-05-10T03:24:36.600Z,84.63
2019-05-10T03:27:03.333Z,85.13
2019-05-10T03:29:30.666Z,85.14
2019-05-10T03:32:00.265Z,84.84
2019-05-10T03:34:26.965Z,85.19
2019-05-10T03:36:53.652Z,85.17
2019-05-10T03:39:20.435Z,85.25
2019-05-10T03:41:47.323Z,85.01
2019-05-10T03:44:14.032Z,84.76
2019-05-10T03:46:40.747Z,84.78
2019-05-10T03:49:07.447Z,84.65
2019-05-10T03:51:34.157Z,84.59
2019-05-10T03:54:03.074Z,84.82
2019-05-10T03:56:30.124Z,84.76
2019-05-10T03:58:56.919Z,84.67
2019-05-10T04:01:23.636Z,84.70
2019-05-10T04:03:50.371Z,84.90
2019-05-10T04:06:17.499Z,85.22
2019-05-10T04:08:44.529Z,85.19
2019-05-10T04:11:11.217Z,85.08
2019-05-10T04:13:37.914Z,85.22
2019-05-10T04:16:05.359Z,85.06
2019-05-10T04:18:32.063Z,85.11
2019-05-10T04:20:58.773Z,85.07
2019-05-10T04:23:25.544Z,85.30
2019-05-10T04:25:55.331Z,86.61
2019-05-10T04:28:22.175Z,86.77
2019-05-10T04:30:49.290Z,86.19
2019-05-10T04:33:16.359Z,85.70
2019-05-10T04:35:43.626Z,85.28
2019-05-10T04:38:10.384Z,85.00
2019-05-10T04:40:37.284Z,84.69
2019-05-10T04:43:06.600Z,84.65
2019-05-10T04:45:33.329Z,84.56
2019-05-10T04:48:00.036Z,84.67
2019-05-10T04:50:26.735Z,84.78
2019-05-10T04:52:53.421Z,84.90
2019-05-10T04:55:20.455Z,84.73
2019-05-10T04:57:50.977Z,84.36
2019-05-10T05:00:15.998Z,84.43
2019-05-10T05:02:44.887Z,84.39
2019-05-10T05:05:11.584Z,84.43
2019-05-10T05:07:38.299Z,84.28
2019-05-10T05:10:05.111Z,84.06
2019-05-10T05:12:31.918Z,84.02
2019-05-10T05:14:58.864Z,84.01
2019-05-10T05:17:25.846Z,84.05
2019-05-10T05:19:52.545Z,84.10
2019-05-10T05:22:19.210Z,84.21
2019-05-10T05:24:45.934Z,84.01
2019-05-10T05:27:12.667Z,84.07
2019-05-10T05:29:39.527Z,83.79
2019-05-10T05:32:06.230Z,83.69
2019-05-10T05:34:32.980Z,83.81
2019-05-10T05:37:01.672Z,83.61
2019-05-10T05:39:28.773Z,83.12
2019-05-10T05:41:56.603Z,82.88
2019-05-10T05:44:26.257Z,82.55
2019-05-10T05:46:52.642Z,82.35
2019-05-10T05:49:19.339Z,82.27
2019-05-10T05:51:46.464Z,82.35
2019-05-10T05:54:15.233Z,82.37
2019-05-10T05:56:44.629Z,82.12
2019-05-10T05:59:10.648Z,81.95
2019-05-10T06:01:37.371Z,82.28
2019-05-10T06:04:06.288Z,82.21
2019-05-10T06:06:33.087Z,81.96
2019-05-10T06:09:01.631Z,81.65
2019-05-10T06:11:35.993Z,81.29
2019-05-10T06:14:03.598Z,81.05
2019-05-10T06:16:28.167Z,81.31
2019-05-10T06:18:54.900Z,80.65
2019-05-10T06:21:24.777Z,79.57
2019-05-10T06:23:50.183Z,79.68
2019-05-10T06:26:26.668Z,80.00
2019-05-10T06:29:04.643Z,78.64
2019-05-10T06:31:14.522Z,78.55
2019-05-10T06:33:44.925Z,77.91
2019-05-10T06:36:17.466Z,77.29
2019-05-10T06:38:44.173Z,77.39
2019-05-10T06:41:16.765Z,76.91
2019-05-10T06:43:39.751Z,77.21
2019-05-10T06:46:06.573Z,76.84
2019-05-10T06:48:35.561Z,76.73
2019-05-10T06:51:08.850Z,76.52
2019-05-10T06:53:31.257Z,76.66
2019-05-10T06:55:58.292Z,75.99
2019-05-10T06:58:25.063Z,75.97
2019-05-10T07:00:51.813Z,75.74
2019-05-10T07:03:22.253Z,75.01
2019-05-10T07:05:52.538Z,73.57
2019-05-10T07:08:20.528Z,72.86
2019-05-10T07:10:47.667Z,73.46
2019-05-10T07:13:14.398Z,73.00
2019-05-10T07:15:44.620Z,73.12
2019-05-10T07:18:09.741Z,72.41
2019-05-10T07:20:36.476Z,72.08
2019-05-10T07:23:06.270Z,70.47
2019-05-10T07:25:32.005Z,70.81
2019-05-10T07:27:59.259Z,70.51
2019-05-10T07:30:31.705Z,70.19
2019-05-10T07:32:59.662Z,69.25
2019-05-10T07:35:30.950Z,69.82
2019-05-10T07:37:55.955Z,70.21
2019-05-10T07:40:22.674Z,69.41
2019-05-10T07:42:49.923Z,68.54
2019-05-10T07:45:18.710Z,68.32
2019-05-10T07:47:45.393Z,68.61
2019-05-10T07:50:13.357Z,69.13
2019-05-10T07:52:43.555Z,68.94
2019-05-10T07:55:10.468Z,69.09
2019-05-10T07:57:37.558Z,69.67
2019-05-10T08:00:07.495Z,69.25
2019-05-10T08:02:34.204Z,68.75
2019-05-10T08:05:04.982Z,68.42
2019-05-10T08:07:30.030Z,68.79
2019-05-10T08:09:59.781Z,68.94
2019-05-10T08:12:28.952Z,68.86
2019-05-10T08:14:55.927Z,68.29
2019-05-10T08:17:23.044Z,67.87
2019-05-10T08:19:50.067Z,67.32
2019-05-10T08:22:17.127Z,66.11
2019-05-10T08:24:52.127Z,65.97
2019-05-10T08:27:14.862Z,66.00
2019-05-10T08:29:42.885Z,63.97
2019-05-10T08:32:12.670Z,63.70
2019-05-10T08:34:40.231Z,63.35
2019-05-10T08:37:07.241Z,62.56
2019-05-10T08:39:44.070Z,62.21
2019-05-10T08:42:13.641Z,62.71
2019-05-10T08:44:32.667Z,62.70
2019-05-10T08:47:02.407Z,61.72
2019-05-10T08:49:35.758Z,62.07
2019-05-10T08:51:58.749Z,62.97
2019-05-10T08:54:26.551Z,62.29
2019-05-10T08:57:01.080Z,62.13
2019-05-10T08:59:26.137Z,60.80
2019-05-10T09:01:53.835Z,60.30
2019-05-10T09:04:22.227Z,60.62
2019-05-10T09:06:55.492Z,60.27
2019-05-10T09:09:27.181Z,59.88
2019-05-10T09:12:04.228Z,59.04
2019-05-10T09:14:32.703Z,59.21
2019-05-10T09:17:04.022Z,59.35
2019-05-10T09:19:37.505Z,57.88
2019-05-10T09:21:57.101Z,57.54
2019-05-10T09:24:23.895Z,57.71
2019-05-10T09:26:54.822Z,57.52
2019-05-10T09:29:21.939Z,55.89
2019-05-10T09:31:50.688Z,56.13
2019-05-10T09:34:17.423Z,55.82
2019-05-10T09:36:47.021Z,54.72
2019-05-10T09:39:17.649Z,55.38
2019-05-10T09:41:42.129Z,55.30
2019-05-10T09:44:10.121Z,55.76
2019-05-10T09:46:36.822Z,55.65
2019-05-10T09:49:08.351Z,55.96
2019-05-10T09:51:33.059Z,55.16
2019-05-10T09:54:00.607Z,55.10
2019-05-10T09:56:32.973Z,54.49
2019-05-10T09:58:58.194Z,54.75
2019-05-10T10:01:25.365Z,54.89
2019-05-10T10:03:52.041Z,54.82
2019-05-10T10:06:21.602Z,54.86
2019-05-10T10:08:53.306Z,54.83
2019-05-10T10:11:18.853Z,55.05
2019-05-10T10:13:58.588Z,55.07
2019-05-10T10:16:19.172Z,54.58
2019-05-10T10:18:47.667Z,54.33
2019-05-10T10:21:18.835Z,53.74
2019-05-10T10:23:43.301Z,53.34
2019-05-10T10:26:12.813Z,52.93
2019-05-10T10:28:39.723Z,52.70
2019-05-10T10:31:08.718Z,51.94
2019-05-10T10:33:37.784Z,50.85
2019-05-10T10:36:07.000Z,50.54
2019-05-10T10:38:37.033Z,50.54
2019-05-10T10:41:03.869Z,50.85
2019-05-10T10:43:31.089Z,51.99
2019-05-10T10:45:59.108Z,51.41
2019-05-10T10:48:28.294Z,51.81
2019-05-10T10:50:58.291Z,50.41
2019-05-10T10:53:24.087Z,49.67
2019-05-10T10:55:54.565Z,49.81
2019-05-10T10:58:20.111Z,50.28
2019-05-10T11:00:48.240Z,49.62
2019-05-10T11:03:15.412Z,49.63
2019-05-10T11:05:42.194Z,49.64
2019-05-10T11:08:11.019Z,49.42
2019-05-10T11:10:37.725Z,48.79
2019-05-10T11:13:11.971Z,49.07
2019-05-10T11:15:36.700Z,49.39
2019-05-10T11:18:03.487Z,49.30
2019-05-10T11:20:31.804Z,50.04
2019-05-10T11:23:00.796Z,51.13
2019-05-10T11:25:30.671Z,50.09
2019-05-10T11:27:59.255Z,49.77
2019-05-10T11:30:26.312Z,49.82
2019-05-10T11:32:53.055Z,49.51
2019-05-10T11:35:28.429Z,50.25
2019-05-10T11:37:50.843Z,50.47
2019-05-10T11:40:28.019Z,50.42
2019-05-10T11:42:47.623Z,49.82
2019-05-10T11:45:14.685Z,49.01
2019-05-10T11:47:41.403Z,47.09
2019-05-10T11:50:10.616Z,45.74
2019-05-10T11:52:37.643Z,45.82
2019-05-10T11:55:04.469Z,45.35
2019-05-10T11:57:32.865Z,46.57
2019-05-10T11:59:59.893Z,46.60
2019-05-10T12:02:37.284Z,45.60
2019-05-10T12:05:02.715Z,45.14
2019-05-10T12:07:45.776Z,44.67
2019-05-10T12:12:53.905Z,44.23
2019-05-10T12:15:14.082Z,43.43
2019-05-10T12:17:43.822Z,42.98
2019-05-10T12:20:16.715Z,42.45
2019-05-10T12:22:47.198Z,40.70
2019-05-10T12:25:28.332Z,40.12
2019-05-10T12:26:19.633Z,44.87
2019-05-10T12:27:45.167Z,39.94
2019-05-10T12:30:07.372Z,40.39
2019-05-10T12:32:38.757Z,39.12
2019-05-10T12:35:05.402Z,39.37
2019-05-10T12:37:32.244Z,38.79
2019-05-10T12:40:08.995Z,40.33
2019-05-10T12:42:28.326Z,40.21
2019-05-10T12:44:56.089Z,40.03
2019-05-10T12:47:23.019Z,40.05
2019-05-10T12:49:53.950Z,39.58
2019-05-10T12:52:22.053Z,40.00
2019-05-10T12:54:47.530Z,41.26
2019-05-10T12:57:14.296Z,40.74
2019-05-10T12:59:41.026Z,40.67
2019-05-10T13:02:11.088Z,40.21
2019-05-10T13:04:40.558Z,39.75
2019-05-10T13:07:05.355Z,38.57
2019-05-10T13:09:39.904Z,39.13
2019-05-10T13:12:04.008Z,39.86
2019-05-10T13:14:30.128Z,39.59
2019-05-10T13:16:56.940Z,38.76
2019-05-10T13:19:23.632Z,37.78
2019-05-10T13:21:53.779Z,38.24
2019-05-10T13:24:19.107Z,38.14
2019-05-10T13:26:46.718Z,38.20
2019-05-10T13:29:13.469Z,37.48
2019-05-10T13:31:44.413Z,38.12
2019-05-10T13:34:14.373Z,37.50
2019-05-10T13:36:41.088Z,38.38
2019-05-10T13:40:18.700Z,38.64
2019-05-10T13:42:51.997Z,38.69
2019-05-10T13:45:18.746Z,38.87
2019-05-10T13:47:45.796Z,38.45
2019-05-10T13:50:12.503Z,38.67
2019-05-10T13:52:41.426Z,38.79
2019-05-10T13:55:08.182Z,38.17
2019-05-10T13:57:35.282Z,38.34
2019-05-10T14:00:02.593Z,38.06
2019-05-10T14:02:34.565Z,38.08
2019-05-10T14:05:00.676Z,38.84
2019-05-10T14:07:27.378Z,39.53
2019-05-10T14:09:54.102Z,39.68
2019-05-10T14:12:23.422Z,40.00
2019-05-10T14:14:49.491Z,40.32
2019-05-10T14:17:16.221Z,40.82
2019-05-10T14:19:42.918Z,41.38
2019-05-10T14:22:09.705Z,40.95
2019-05-10T14:24:36.521Z,41.07
2019-05-10T14:27:03.262Z,40.97
2019-05-10T14:29:34.319Z,41.26
2019-05-10T14:31:58.690Z,41.64
2019-05-10T14:34:25.528Z,41.91
2019-05-10T14:36:52.263Z,42.49
2019-05-10T14:39:21.441Z,42.66
2019-05-10T14:41:50.861Z,42.43
2019-05-10T14:44:18.463Z,42.19
2019-05-10T14:46:46.120Z,42.17
2019-05-10T14:49:12.976Z,43.13
2019-05-10T14:51:56.606Z,43.94
2019-05-10T14:54:09.025Z,44.28
2019-05-10T14:56:35.986Z,46.95
2019-05-10T14:59:04.526Z,45.74
2019-05-10T15:01:36.985Z,45.03
2019-05-10T15:04:00.262Z,44.25
2019-05-10T15:06:30.897Z,45.71
2019-05-10T15:08:55.950Z,45.24
2019-05-10T15:11:26.511Z,46.23
2019-05-10T15:13:51.560Z,45.73
2019-05-10T15:16:26.878Z,43.99
2019-05-10T15:18:47.618Z,43.30
2019-05-10T15:21:14.943Z,43.40
2019-05-10T15:23:42.069Z,44.55
2019-05-10T15:26:11.484Z,44.54
2019-05-10T15:28:40.781Z,44.08
2019-05-10T15:31:06.112Z,44.99
2019-05-10T15:33:33.533Z,43.64
2019-05-10T15:36:00.334Z,42.73
2019-05-10T15:38:31.804Z,42.10
2019-05-10T15:40:58.630Z,42.11
2019-05-10T15:43:25.362Z,42.30
2019-05-10T15:45:53.151Z,42.40
2019-05-10T15:48:20.760Z,42.36
2019-05-10T15:50:47.554Z,42.28
2019-05-10T15:53:19.599Z,42.10
2019-05-10T15:55:43.230Z,42.46
2019-05-10T15:58:09.950Z,42.58
2019-05-10T16:00:39.106Z,42.68
2019-05-10T16:03:05.352Z,42.58
2019-05-10T16:05:43.164Z,42.69
2019-05-10T16:08:00.871Z,43.28
2019-05-10T16:10:38.766Z,42.95
2019-05-10T16:12:56.503Z,43.05
2019-05-10T16:15:23.241Z,42.91
2019-05-10T16:17:53.799Z,43.09
2019-05-10T16:20:18.913Z,43.83
2019-05-10T16:22:45.669Z,43.75
2019-05-10T16:25:12.656Z,44.57
2019-05-10T16:27:44.369Z,44.16
2019-05-10T16:30:12.117Z,44.27
2019-05-10T16:32:36.890Z,44.54
2019-05-10T16:35:12.535Z,45.61
2019-05-10T16:37:32.848Z,45.19
2019-05-10T16:39:59.624Z,45.39
2019-05-10T16:42:27.779Z,45.81
2019-05-10T16:44:55.220Z,46.31
2019-05-10T16:47:21.934Z,46.36
2019-05-10T16:49:53.444Z,46.84
2019-05-10T16:52:19.605Z,46.59
2019-05-10T16:54:49.111Z,45.54
2019-05-10T16:57:15.857Z,45.74
2019-05-10T16:59:42.576Z,45.99
2019-05-10T17:02:11.900Z,45.67
2019-05-10T17:04:39.831Z,45.87
2019-05-10T17:07:06.778Z,46.15
2019-05-10T17:09:33.729Z,45.94
2019-05-10T17:12:00.483Z,46.04
2019-05-10T17:14:27.211Z,45.51
2019-05-10T17:16:58.291Z,45.92
2019-05-10T17:19:27.778Z,45.75
2019-05-10T17:21:51.614Z,45.93
2019-05-10T17:24:23.515Z,45.89
2019-05-10T17:26:46.975Z,46.36
2019-05-10T17:29:14.772Z,46.85
2019-05-10T17:31:45.689Z,46.58
2019-05-10T17:34:22.132Z,47.18
2019-05-10T17:36:40.015Z,46.98
2019-05-10T17:39:06.826Z,47.25
2019-05-10T17:41:33.546Z,47.35
2019-05-10T17:44:00.779Z,47.59
2019-05-10T17:46:27.479Z,47.35
2019-05-10T17:48:54.235Z,48.06
2019-05-10T17:51:20.942Z,47.66
2019-05-10T17:53:48.023Z,47.24
2019-05-10T17:56:14.743Z,47.39
2019-05-10T17:58:41.494Z,47.31
2019-05-10T18:01:12.624Z,46.78
2019-05-10T18:03:43.591Z,46.64
2019-05-10T18:06:23.079Z,46.66
2019-05-10T18:08:39.298Z,47.58
2019-05-10T18:11:06.363Z,47.70
2019-05-10T18:13:35.679Z,47.70
2019-05-10T18:16:04.626Z,47.72
2019-05-10T18:18:35.913Z,47.99
2019-05-10T18:20:59.049Z,48.40
2019-05-10T18:23:25.740Z,48.32
2019-05-10T18:25:58.502Z,48.63
2019-05-10T18:28:21.699Z,48.95
2019-05-10T18:30:48.824Z,49.37
2019-05-10T18:33:15.563Z,49.74
2019-05-10T18:35:42.331Z,49.91
2019-05-10T18:38:09.053Z,50.15
2019-05-10T18:40:35.800Z,50.16
2019-05-10T18:43:04.465Z,51.28
2019-05-10T18:45:31.253Z,51.12
2019-05-10T18:47:58.041Z,52.27
2019-05-10T18:50:25.133Z,52.83
2019-05-10T18:52:51.867Z,53.10
2019-05-10T18:55:18.702Z,53.52
2019-05-10T18:57:50.382Z,53.60
2019-05-10T19:00:17.514Z,53.75
2019-05-10T19:02:43.810Z,53.65
2019-05-10T19:05:13.496Z,53.34
2019-05-10T19:07:40.326Z,52.49
2019-05-10T19:10:07.066Z,52.18
2019-05-10T19:12:34.115Z,52.18
2019-05-10T19:15:02.391Z,51.93
2019-05-10T19:17:30.360Z,52.19
2019-05-10T19:19:57.110Z,52.07
2019-05-10T19:22:23.851Z,51.76
2019-05-10T19:24:50.990Z,52.07
2019-05-10T19:27:17.695Z,52.97
2019-05-10T19:29:46.080Z,53.48
2019-05-10T19:32:18.030Z,53.64
2019-05-10T19:34:42.530Z,53.88
2019-05-10T19:37:09.381Z,55.28
2019-05-10T19:39:36.158Z,56.23
2019-05-10T19:42:05.866Z,57.17
2019-05-10T19:44:40.322Z,57.36
2019-05-10T19:47:04.881Z,57.77
2019-05-10T19:49:31.671Z,58.15
2019-05-10T19:51:59.063Z,58.53
2019-05-10T19:54:25.849Z,58.77
2019-05-10T19:56:55.234Z,59.40
2019-05-10T19:59:21.197Z,59.72
2019-05-10T20:01:47.913Z,60.87
2019-05-10T20:04:14.697Z,62.30
2019-05-10T20:06:41.431Z,63.21
2019-05-10T20:09:08.189Z,63.41
2019-05-10T20:11:35.235Z,63.87
2019-05-10T20:14:02.295Z,64.92
2019-05-10T20:16:29.447Z,65.94
2019-05-10T20:18:56.319Z,66.18
2019-05-10T20:21:23.079Z,66.86
2019-05-10T20:23:50.061Z,67.16
2019-05-10T20:26:16.961Z,68.14
2019-05-10T20:28:43.715Z,68.27
2019-05-10T20:31:10.891Z,68.23
2019-05-10T20:33:37.746Z,69.11
2019-05-10T20:36:04.735Z,69.11
2019-05-10T20:38:31.509Z,69.19
2019-05-10T20:40:58.215Z,69.78
2019-05-10T20:43:24.937Z,69.74
2019-05-10T20:45:51.648Z,69.77
2019-05-10T20:48:18.551Z,70.44
2019-05-10T20:50:45.689Z,71.03
2019-05-10T20:53:12.436Z,71.86
2019-05-10T20:55:39.235Z,71.66
2019-05-10T20:58:06.182Z,71.85
2019-05-10T21:00:32.979Z,72.57
2019-05-10T21:02:59.712Z,72.10
2019-05-10T21:05:26.553Z,72.08
2019-05-10T21:07:53.291Z,72.41
2019-05-10T21:10:20.053Z,72.12
2019-05-10T21:12:46.895Z,72.43
2019-05-10T21:15:13.663Z,72.94
2019-05-10T21:17:40.613Z,73.34
2019-05-10T21:20:07.355Z,73.30
2019-05-10T21:22:34.593Z,73.58
2019-05-10T21:25:01.333Z,73.30
2019-05-10T21:27:28.277Z,73.67
2019-05-10T21:29:55.384Z,73.29
2019-05-10T21:32:24.529Z,73.69
2019-05-10T21:34:51.456Z,74.15
2019-05-10T21:37:18.289Z,73.77
2019-05-10T21:39:45.023Z,74.71
2019-05-10T21:42:11.735Z,75.83
2019-05-10T21:44:38.493Z,76.42
2019-05-10T21:47:05.676Z,76.36
2019-05-10T21:49:32.836Z,76.63
2019-05-10T21:51:59.959Z,76.53
2019-05-10T21:54:26.927Z,76.75
2019-05-10T21:56:53.973Z,76.42
2019-05-10T21:59:20.789Z,76.68
2019-05-10T22:01:47.583Z,76.44
2019-05-10T22:04:14.725Z,76.79
2019-05-10T22:06:41.687Z,77.15
2019-05-10T22:09:09.417Z,77.08
2019-05-10T22:11:36.230Z,77.32
2019-05-10T22:14:03.009Z,76.72
2019-05-10T22:16:29.732Z,76.94
2019-05-10T22:19:00.942Z,77.61
2019-05-10T22:21:27.703Z,77.37
2019-05-10T22:23:54.447Z,77.81
2019-05-10T22:26:21.207Z,77.31
2019-05-10T22:28:48.032Z,77.64
2019-05-10T22:31:14.802Z,77.54
2019-05-10T22:33:41.779Z,77.41
2019-05-10T22:36:08.627Z,77.89
2019-05-10T22:38:35.662Z,77.67
2019-05-10T22:41:02.407Z,77.65
2019-05-10T22:43:29.114Z,78.18
2019-05-10T22:45:56.028Z,79.08
2019-05-10T22:48:23.057Z,79.17
2019-05-10T22:50:50.793Z,79.05
2019-05-10T22:53:17.540Z,79.68
2019-05-10T22:55:44.642Z,79.97
2019-05-10T22:58:11.455Z,80.29
2019-05-10T23:00:38.410Z,80.36
2019-05-10T23:03:05.234Z,79.79
2019-05-10T23:05:31.955Z,79.35
2019-05-10T23:07:58.760Z,80.20
2019-05-10T23:10:25.767Z,80.56
2019-05-10T23:12:52.505Z,80.76
2019-05-10T23:15:19.725Z,80.11
2019-05-10T23:17:46.541Z,79.74
2019-05-10T23:20:15.542Z,79.06
2019-05-10T23:22:42.250Z,78.25
2019-05-10T23:25:12.030Z,77.89
2019-05-10T23:27:38.743Z,78.31
2019-05-10T23:30:05.506Z,78.36
2019-05-10T23:32:32.343Z,78.71
2019-05-10T23:34:59.061Z,78.49
2019-05-10T23:37:25.816Z,79.05
2019-05-10T23:39:52.530Z,79.30
2019-05-10T23:42:21.377Z,79.78
2019-05-10T23:44:52.160Z,80.78
2019-05-10T23:47:18.900Z,82.07
2019-05-10T23:49:45.656Z,82.77
2019-05-10T23:52:12.459Z,82.38
2019-05-10T23:54:39.304Z,82.17
2019-05-10T23:57:06.123Z,81.70
2019-05-10T23:59:32.871Z,81.41
